METAR stanice u blizini

 

LYNI - Nis, Yugoslavia
Distance from station: JZ 40km
Ažurirano: 16/10/2019 10:00
Vedro
Vedro
 Pravac vetra JJZ
Vetar: JJZ 6 km/h
Temperatura: 17°C
Tačka rose: 8°C
Vlažnost: 56%
Pritisak: 1018 hPa
Pregled: Vedro
Vidljivost: greater than 10 km
2019/10/16 08:00 LYNI 160800Z 21003KT 120V290 CAVOK 17/08 Q1018 NOSIG
LYKV - Kraljevo, Yugoslavia
Distance from station: ZSZ 136km
Ažurirano: 16/10/2019 10:00
Vedro
Vedro
 Pravac vetra varies
Vetar: varies 4 km/h
Temperatura: 15°C
Tačka rose: 10°C
Vlažnost: 72%
Pritisak: 1018 hPa
Pregled: Vedro
Vidljivost: greater than 10 km
2019/10/16 08:00 LYKV 160800Z VRB02KT CAVOK 15/10 Q1018 NOSIG
LBSF - Sofia (observato, Bulgaria
Distance from station: JI 138km
Ažurirano: 16/10/2019 10:00
Vedro
Vedro
 Pravac vetra varies
Vetar: varies 4 km/h
Temperatura: 15°C
Tačka rose: 7°C
Vlažnost: 59%
Pritisak: 1020 hPa
Pregled: Vedro
Vidljivost: greater than 10 km
2019/10/16 08:00 LBSF 160800Z VRB02KT CAVOK 15/07 Q1020 NOSIG
 
BKPR - Prishtina, Yugoslavia
Distance from station: JZ 147km
Ažurirano: 16/10/2019 10:00
Delimično oblačno
Delimično oblačno
 Pravac vetra varies
Vetar: varies 4 km/h
Temperatura: 14°C
Tačka rose: 8°C
Vlažnost: 67%
Pritisak: 1019 hPa
Oblaci: Delimično oblačno
Vidljivost: 8 km
2019/10/16 08:00 BKPR 160800Z VRB02KT 8000 NSC 14/08 Q1019 NOSIG
LRCV - Craiova, Romania
Distance from station: SI 154km
Ažurirano: 16/10/2019 10:00
Vedro
Vedro
 Pravac vetra I
Vetar: I 11 km/h
Temperatura: 16°C
Tačka rose: 12°C
Vlažnost: 77%
Pritisak: 1019 hPa
Pregled: Vedro
Vidljivost: greater than 10 km
2019/10/16 08:00 LRCV 160800Z 09006KT 060V120 CAVOK 16/12 Q1019
LWSK - Skopje/Petrovac, Macedonia
Distance from station: JJZ 185km
Ažurirano: 16/10/2019 10:00
Vedro
Vedro
 Pravac vetra calm
Vetar: Tišina
Temperatura: 16°C
Tačka rose: 9°C
Vlažnost: 63%
Pritisak: 1019 hPa
Pregled: Vedro
Vidljivost: greater than 10 km
2019/10/16 08:00 LWSK 160800Z 00000KT CAVOK 16/09 Q1019 NOSIG
 
LYVR - Vrsac, Yugoslavia
Distance from station: SSZ 189km
Ažurirano: 16/10/2019 10:00
Vedro
Vedro
 Pravac vetra J
Vetar: J 24 km/h
Temperatura: 22°C
Tačka rose: 9°C
Vlažnost: 44%
Pritisak: 1016 hPa
Pregled: Vedro
Vidljivost: greater than 10 km
2019/10/16 08:00 LYVR 160800Z 17013KT 150V210 CAVOK 22/09 Q1016 NOSIG
LYUZ - Uzice-Ponikve, Yugoslavia
Distance from station: Z 207km
Ažurirano: 16/10/2019 10:00
Vedro
Vedro
 Pravac vetra JZ
Vetar: JZ 11 km/h
Temperatura: 17°C
Tačka rose: 5°C
Vlažnost: 45%
Pritisak: 1020 hPa
Pregled: Vedro
Vidljivost: greater than 10 km
2019/10/16 08:00 LYUZ 160800Z 23006KT 180V300 CAVOK 17/05 Q1020
LYBE - Belgrade/Surcin, Yugoslavia
Distance from station: SZ 209km
Ažurirano: 16/10/2019 10:00
Vedro
Vedro
 Pravac vetra calm
Vetar: Tišina
Temperatura: 18°C
Tačka rose: 11°C
Vlažnost: 64%
Pritisak: 1017 hPa
Pregled: Vedro
Vidljivost: greater than 10 km
2019/10/16 08:00 LYBE 160800Z 00000KT CAVOK 18/11 Q1017 NOSIG
 
LYBT - Batajnica, Yugoslavia
Distance from station: SZ 219km
Ažurirano: 16/10/2019 10:00
Vedro
Vedro
 Pravac vetra varies
Vetar: varies 2 km/h
Temperatura: 19°C
Tačka rose: 12°C
Vlažnost: 64%
Pritisak: 1016 hPa
Pregled: Vedro
Vidljivost: greater than 10 km
2019/10/16 08:00 LYBT 160800Z VRB01KT CAVOK 19/12 Q1016 NOSIG
LRTR - Timisoara/Giarma, Romania
Distance from station: SSZ 260km
Ažurirano: 16/10/2019 10:00
Vedro
Vedro
 Pravac vetra J
Vetar: J 11 km/h
Temperatura: 20°C
Tačka rose: 9°C
Vlažnost: 49%
Pritisak: 1016 hPa
Pregled: Vedro
Vidljivost: greater than 10 km
2019/10/16 08:00 LRTR 160800Z 17006KT 130V190 CAVOK 20/09 Q1016
LBPD - Plovdiv, Bulgaria
Distance from station: JI 263km
Ažurirano: 16/10/2019 10:00
Vedro
Vedro
 Pravac vetra varies
Vetar: varies 2 km/h
Temperatura: 15°C
Tačka rose: 8°C
Vlažnost: 63%
Pritisak: 1019 hPa
Oblaci: Vedro
Vidljivost: 10 km
2019/10/16 08:00 LBPD 160800Z AUTO VRB01KT 9999 NCD 15/08 Q1019 NOSIG
 
LYPG - Podgorica(Titogr, Yugoslavia
Distance from station: ZJZ 278km
Ažurirano: 16/10/2019 10:00
Vedro
Vedro
 Pravac vetra S
Vetar: S 9 km/h
Temperatura: 19°C
Tačka rose: 11°C
Vlažnost: 60%
Pritisak: 1018 hPa
Pregled: Vedro
Vidljivost: greater than 10 km
2019/10/16 08:00 LYPG 160800Z 35005KT 320V020 CAVOK 19/11 Q1018 NOSIG
LBGO - Gorna Orechovist, Bulgaria
Distance from station: I 285km
Ažurirano: 16/10/2019 10:00
Vedro
Vedro
 Pravac vetra varies
Vetar: varies 4 km/h
Temperatura: 15°C
Tačka rose: 7°C
Vlažnost: 59%
Pritisak: 1019 hPa
Oblaci: Vedro
Vidljivost: 10 km
2019/10/16 08:00 LBGO 160800Z AUTO VRB02KT 9999 NCD 15/07 Q1019 NOSIG
LRSB - Sibiu/Turnisor, Romania
Distance from station: SSI 286km
Ažurirano: 16/10/2019 10:00
Vedro
Vedro
 Pravac vetra IJI
Vetar: IJI 9 km/h
Temperatura: 13°C
Tačka rose: 8°C
Vlažnost: 72%
Pritisak: 1018 hPa
Pregled: Vedro
Vidljivost: greater than 10 km
2019/10/16 08:00 LRSB 160800Z 11005KT CAVOK 13/08 Q1018
 
LWOH - Ohrid, Macedonia
Distance from station: JJZ 292km
Ažurirano: 16/10/2019 10:00
Vedro
Vedro
 Pravac vetra JI
Vetar: JI 4 km/h
Temperatura: 17°C
Tačka rose: 12°C
Vlažnost: 73%
Pritisak: 1020 hPa
Pregled: Vedro
Vidljivost: greater than 10 km
2019/10/16 08:00 LWOH 160800Z 14002KT CAVOK 17/12 Q1020
LQTZ - Tuzla, Yugoslavia
Distance from station: ZSZ 298km
Ažurirano: 16/10/2019 10:00
Vedro
Vedro
 Pravac vetra varies
Vetar: varies 2 km/h
Temperatura: 13°C
Tačka rose: 11°C
Vlažnost: 88%
Pritisak: 1016 hPa
Pregled: Vedro
Vidljivost: greater than 10 km
2019/10/16 08:00 LQTZ 160800Z VRB01KT CAVOK 13/11 Q1016
LRAR - Arad, Romania
Distance from station: SSZ 301km
Ažurirano: 16/10/2019 10:00
Vedro
Vedro
 Pravac vetra JJZ
Vetar: JJZ 19 km/h
Temperatura: 21°C
Tačka rose: 9°C
Vlažnost: 46%
Pritisak: 1016 hPa
Pregled: Vedro
Vidljivost: greater than 10 km
2019/10/16 08:00 LRAR 160800Z 20010KT CAVOK 21/09 Q1016
 
LYTV - Tivat, Yugoslavia
Distance from station: ZJZ 315km
Ažurirano: 16/10/2019 10:00
Vedro
Vedro
 Pravac vetra varies
Vetar: varies 2 km/h
Temperatura: 20°C
Tačka rose: 15°C
Vlažnost: 73%
Pritisak: 1018 hPa
Pregled: Vedro
Vidljivost: greater than 10 km
2019/10/16 08:00 LYTV 160800Z VRB01KT CAVOK 20/15 Q1018 NOSIG
LATI - Tirana, Albania
Distance from station: JZ 316km
Ažurirano: 16/10/2019 09:50
Vedro
Vedro
 Pravac vetra JJI
Vetar: JJI 7 km/h
Temperatura: 20°C
Tačka rose: 15°C
Vlažnost: 73%
Pritisak: 1018 hPa
Pregled: Vedro
Vidljivost: greater than 10 km
2019/10/16 07:50 LATI 160750Z 16004KT 120V220 CAVOK 20/15 Q1018 NOSIG
LQBK - Banja Luka, Yugoslavia
Distance from station: SZ 426km
Ažurirano: 16/10/2019 10:00
Vedro
Vedro
 Pravac vetra I
Vetar: I 4 km/h
Temperatura: 16°C
Tačka rose: 10°C
Vlažnost: 68%
Pritisak: 1015 hPa
Pregled: Vedro
Vidljivost: greater than 10 km
2019/10/16 08:00 LQBK 160800Z 09002KT CAVOK 16/10 Q1015 NOSIG
 
LDOS - Osijek, Croatia
Distance from station: SSZ 360km
Ažurirano: 16/10/2019 10:00
Vedro
Vedro
 Pravac vetra JJI
Vetar: JJI 7 km/h
Temperatura: 17°C
Tačka rose: 12°C
Vlažnost: 73%
Pritisak: 1016 hPa
Pregled: Vedro
Vidljivost: greater than 10 km
2019/10/16 08:00 LDOS 160800Z 16004KT 120V240 CAVOK 17/12 Q1016
LDDU - Dubrovnik-Cilipi, Croatia
Distance from station: JZ 352km
Ažurirano: 16/10/2019 10:00
Vedro
Vedro
 Pravac vetra I
Vetar: I 15 km/h
Temperatura: 20°C
Tačka rose: 10°C
Vlažnost: 53%
Pritisak: 1018 hPa
Pregled: Vedro
Vidljivost: greater than 10 km
2019/10/16 08:00 LDDU 160800Z 10008KT CAVOK 20/10 Q1018 NOSIG
LQMO - Mostar Airport, Bosnia-Herzegovina
Distance from station: Z 359km
Ažurirano: 16/10/2019 10:00
Delimično oblačno
Delimično oblačno
 Pravac vetra varies
Vetar: varies 4 km/h
Temperatura: 15°C
Tačka rose: 12°C
Vlažnost: 82%
Pritisak: 1017 hPa
Oblaci: Delimično oblačno
Vidljivost: 10 km
Cloud details: Few Clouds 1494 m
Delimično oblačno 2103 m
2019/10/16 08:00 LQMO 160800Z VRB02KT 9999 FEW049 SCT069 15/12 Q1017
 
LQSA - Sarajevo/Butmir, Yugoslavia
Distance from station: Z 311km
Ažurirano: 16/10/2019 10:00
Few Clouds
Few Clouds
 Pravac vetra varies
Vetar: varies 2 km/h
Temperatura: 12°C
Tačka rose: 8°C
Vlažnost: 77%
Pritisak: 1018 hPa
Oblaci: Few Clouds
Vidljivost: 10 km
Cloud details: Few Clouds 1676 m
2019/10/16 08:00 LQSA 160800Z VRB01KT 9999 FEW055 12/08 Q1018 NOSIG
LDSP - Split/Kastel Sta, Croatia
Distance from station: Z 468km
Ažurirano: 16/10/2019 10:00
Pretežno oblačno
Pretežno oblačno
 Pravac vetra IJI
Vetar: IJI 17 km/h
Temperatura: 21°C
Tačka rose: 17°C
Vlažnost: 78%
Pritisak: 1016 hPa
Oblaci: Pretežno oblačno
Vidljivost: 10 km
Cloud details: Pretežno oblačno 1067 m
2019/10/16 08:00 LDSP 160800Z 11009KT 9999 BKN035 21/17 Q1016 NOSIG
LDZD - Zadar/Zemunik, Croatia
Distance from station: ZSZ 567km
Ažurirano: 16/10/2019 10:00
Jaka kiša, Showers, Pretežno oblačno
Jaka kiša, Showers, Pretežno oblačno
 Pravac vetra varies
Vetar: varies 7 km/h
Temperatura: 16°C
Tačka rose: 16°C
Vlažnost: 100%
Pritisak: 1016 hPa
Pregled: Jaka kiša, Showers
Oblaci: Pretežno oblačno
Vidljivost: 3 km
Cloud details: Few Clouds 762 m
Pretežno oblačno 610 m
2019/10/16 08:00 LDZD 160800Z VRB04KT 2500 +SHRA FEW025TCU BKN020 16/16 Q1016 RETS BECMG 4000 -SHRA
 
LDZA - Zagreb/Pleso, Croatia
Distance from station: SZ 555km
Ažurirano: 16/10/2019 10:00
Slaba kiša, Oblačno
Slaba kiša, Oblačno
 Pravac vetra varies
Vetar: varies 2 km/h
Temperatura: 13°C
Tačka rose: 12°C
Vlažnost: 94%
Pritisak: 1015 hPa
Pregled: Slaba kiša
Oblaci: Oblačno
Vidljivost: 10 km
Cloud details: Oblačno 1067 m
2019/10/16 08:00 LDZA 160800Z VRB01KT 9999 -RA OVC035 13/12 Q1015 NOSIG
LJCE - Cerklje, Slovenia
Distance from station: SZ 680km
Ažurirano: 16/10/2019 10:00
Slaba kiša, Pretežno oblačno
Slaba kiša, Pretežno oblačno
 Pravac vetra I
Vetar: I 6 km/h
Temperatura: 14°C
Tačka rose: 13°C
Vlažnost: 94%
Pritisak: 1016 hPa
Pregled: Slaba kiša
Oblaci: Pretežno oblačno
Vidljivost: 10 km
Cloud details: Few Clouds 152 m
Pretežno oblačno 1067 m
2019/10/16 08:00 LJCE 160800Z 08003KT 050V110 9999 -RA FEW005 BKN035 14/13 Q1016 RMK BLU
LJMB - Maribor, Slovenia
Distance from station: SZ 616km
Ažurirano: 16/10/2019 10:00
Vedro
Vedro
 Pravac vetra JJZ
Vetar: JJZ 17 km/h
Temperatura: 16°C
Tačka rose: 13°C
Vlažnost: 83%
Pritisak: 1015 hPa
Pregled: Vedro
Vidljivost: greater than 10 km
2019/10/16 08:00 LJMB 160800Z 21009KT CAVOK 16/13 Q1015
 
LJLJ - Ljubljana/Brnik, Slovenia
Distance from station: SZ 671km
Ažurirano: 16/10/2019 10:00
Mist, Pretežno oblačno
Mist, Pretežno oblačno
 Pravac vetra ISI
Vetar: ISI 9 km/h
Temperatura: 14°C
Tačka rose: 13°C
Vlažnost: 94%
Pritisak: 1016 hPa
Pregled: Mist
Oblaci: Pretežno oblačno
Vidljivost: 4 km
Cloud details: Delimično oblačno 30 m
Pretežno oblačno 91 m
2019/10/16 08:00 LJLJ 160800Z 07005KT 040V100 4000 BR SCT001 BKN003 14/13 Q1016 NOSIG
LDRI - Rijeka, Croatia
Distance from station: SZ 650km
Ažurirano: 16/10/2019 10:00
Few Clouds
Few Clouds
 Pravac vetra JJI
Vetar: JJI 7 km/h
Temperatura: 20°C
Tačka rose: 15°C
Vlažnost: 73%
Pritisak: 1015 hPa
Oblaci: Few Clouds
Vidljivost: 10 km
Cloud details: Few Clouds 823 m
2019/10/16 08:00 LDRI 160800Z 15004KT 110V200 9999 FEW027 20/15 Q1015
LDPL - Pula, Croatia
Distance from station: ZSZ 686km
Ažurirano: 16/10/2019 10:00
Vedro
Vedro
 Pravac vetra Z
Vetar: Z 15 km/h
Temperatura: 20°C
Tačka rose: 13°C
Vlažnost: 64%
Pritisak: 1015 hPa
Pregled: Vedro
Vidljivost: greater than 10 km
2019/10/16 08:00 LDPL 160800Z 27008KT CAVOK 20/13 Q1015 NOSIG
 
LJPZ - Portorož, Slovenia
Distance from station: ZSZ 720km
Ažurirano: 16/10/2019 10:00
Few Clouds
Few Clouds
 Pravac vetra IJI
Vetar: IJI 9 km/h
Temperatura: 19°C
Tačka rose: 15°C
Vlažnost: 78%
Pritisak: 1015 hPa
Oblaci: Few Clouds
Vidljivost: 10 km
Cloud details: Few Clouds 1036 m
2019/10/16 08:00 LJPZ 160800Z 12005KT 9999 FEW034 19/15 Q1015